• Join FlightAware (Why Join?)
  • Login
  • US Flag 
07:57PM EDT


 

Airport Tracker/Info


-or-


 

Live Flight TrackerFlight Track Log ✈ N566UA ✈ 17-Apr-2013 ✈ KDEN - KPDX

Flight Track Log - Related Links

Times and Time Zones

All times are in EDT time to prevent confusion due to time zone crossing. See the N566UA flight status page for this flight to view local times or setup timezone preferences in your user account.

Time Position Orientation Groundspeed Altitude Reporting Facility
EDT Latitude Longitude Course Direction KTS MPH feet Rate Location/Type
09:36PM 39.9167 -104.6833 323° Northwest 172 198 7,000  Level Denver TRACON
09:37PM 39.9667 -104.7000 346° North 213 245 9,300 2,100 Climbing Denver TRACON
09:38PM 40.0333 -104.7333 339° North 271 312 11,000 1,440 Climbing Denver TRACON
09:39PM 40.0336 -104.3667 North  Level FlightAware Approximate
09:39PM 40.0703 -104.7422 350° North 281 323 11,500  Level Denver Center
09:40PM 40.1281 -104.4447 323° Northwest  Level FlightAware Approximate
09:40PM 40.1658 -104.7883 340° North 338 389 13,700  Level Denver Center
09:41PM 40.2211 -104.5323 327° Northwest  Level FlightAware Approximate
09:41PM 40.2611 -104.8322 341° North 361 415 16,100  Level Denver Center
09:42PM 40.3162 -104.6162 323° Northwest  Level FlightAware Approximate
09:42PM 40.3600 -104.8808 339° North 375 432 18,500  Level Denver Center
09:43PM 40.4664 -104.9275 342° North 399 459 20,600 1,980 Climbing Denver Center
09:44PM 40.5861 -104.9897 338° Northwest 426 490 22,600 1,800 Climbing Denver Center
09:45PM 40.7039 -105.0400 342° North 437 503 24,300 1,440 Climbing Denver Center
09:46PM 40.8156 -105.1231 331° Northwest 453 521 25,600 1,260 Climbing Denver Center
09:47PM 40.9172 -105.2400 319° Northwest 477 549 26,900 1,560 Climbing Denver Center
09:48PM 41.0156 -105.3508 320° Northwest 487 560 28,800 1,500 Climbing Denver Center
09:49PM 41.1319 -105.4853 319° Northwest 494 568 30,000 1,080 Climbing Denver Center
09:50PM 41.2314 -105.5989 319° Northwest 493 567 31,100 1,620 Climbing Denver Center
09:51PM 41.3261 -105.7128 318° Northwest 483 556 33,300 1,800 Climbing Denver Center
09:52PM 41.4078 -105.8697 305° West 464 534 34,800 1,380 Climbing Denver Center
09:53PM 41.4717 -106.0075 302° West 459 528 36,200 1,320 Climbing Denver Center
09:54PM 41.5453 -106.1658 302° West 450 518 37,600 840 Climbing Denver Center
09:55PM 41.6094 -106.3025 302° West 451 519 38,000 180 Climbing Denver Center
09:56PM 41.6739 -106.4406 302° West 456 525 38,000  Level Denver Center
09:57PM 41.7436 -106.5908 302° West 452 520 38,000  Level Denver Center
09:58PM 41.8158 -106.7519 301° West 453 521 38,000  Level Denver Center
09:59PM 41.8783 -106.8875 302° West 449 517 38,000  Level Denver Center
10:00PM 41.9403 -107.0261 301° West 451 519 38,000  Level Denver Center
10:01PM 42.0125 -107.1869 301° West 451 519 38,000  Level Denver Center
10:02PM 42.0764 -107.3247 302° West 453 521 38,000  Level Denver Center
10:03PM 42.1450 -107.4844 300° West 445 512 38,000  Level Denver Center
10:04PM 42.1961 -107.6303 295° West 450 518 38,000  Level Denver Center
10:05PM 42.2344 -107.7550 293° West 452 520 38,000  Level Salt Lake Center
10:06PM 42.2856 -107.9278 292° West 447 514 38,000  Level Salt Lake Center
10:07PM 42.3319 -108.0769 293° West 451 519 38,000  Level Salt Lake Center
10:08PM 42.3783 -108.2261 293° West 452 520 38,000  Level Salt Lake Center
10:09PM 42.4308 -108.4000 292° West 448 516 38,000  Level Salt Lake Center
10:10PM 42.4764 -108.5494 292° West 451 519 38,000  Level Salt Lake Center
10:11PM 42.5289 -108.7236 292° West 450 518 38,000  Level Salt Lake Center
10:12PM 42.5744 -108.8744 292° West 451 519 38,000  Level Salt Lake Center
10:13PM 42.6183 -109.0239 292° West 449 517 38,000  Level Salt Lake Center
10:14PM 42.6689 -109.1975 292° West 445 512 38,000  Level Salt Lake Center
10:15PM 42.7128 -109.3489 292° West 449 517 38,000  Level Salt Lake Center
10:16PM 42.7642 -109.5225 292° West 447 514 38,000  Level Salt Lake Center
10:17PM 42.8075 -109.6742 291° West 449 517 38,000  Level Salt Lake Center
10:18PM 42.8508 -109.8247 291° West 448 516 38,000  Level Salt Lake Center
10:19PM 42.9008 -110.0019 291° West 450 518 38,000  Level Salt Lake Center
10:20PM 42.9444 -110.1536 291° West 449 517 38,000  Level Salt Lake Center
10:21PM 42.9939 -110.3317 291° West 448 516 38,000  Level Salt Lake Center
10:22PM 43.0375 -110.4864 291° West 454 522 38,000  Level Salt Lake Center
10:23PM 43.0817 -110.6364 292° West 447 514 38,000  Level Salt Lake Center
10:24PM 43.1308 -110.8139 291° West 447 514 38,000  Level Salt Lake Center
10:26PM 43.1733 -110.9661 291° West 446 513 38,000  Level Salt Lake Center
10:27PM 43.2222 -111.1464 290° West 450 518 38,000  Level Salt Lake Center
10:28PM 43.2633 -111.2989 290° West 445 512 38,000  Level Salt Lake Center
10:29PM 43.3044 -111.4519 290° West 446 513 38,000  Level Salt Lake Center
10:30PM 43.3514 -111.6278 290° West 439 505 38,000  Level Salt Lake Center
10:31PM 43.3917 -111.7797 290° West 441 507 38,000  Level Salt Lake Center
10:32PM 43.4314 -111.9314 290° West 440 506 38,000  Level Salt Lake Center
10:33PM 43.4797 -112.1081 291° West 441 507 38,000  Level Salt Lake Center
10:34PM 43.5189 -112.2592 290° West 439 505 38,000  Level Salt Lake Center
10:35PM 43.5633 -112.4347 289° West 435 501 38,000  Level Salt Lake Center
10:36PM 43.6019 -112.5842 290° West 433 498 38,000  Level Salt Lake Center
10:37PM 43.6400 -112.7333 289° West 430 495 38,000  Level Salt Lake Center
10:38PM 43.6850 -112.9133 289° West 440 506 38,000  Level Salt Lake Center
10:39PM 43.7242 -113.0653 290° West 438 504 38,000  Level Salt Lake Center
10:40PM 43.7692 -113.2419 289° West 437 503 38,000  Level Salt Lake Center
10:41PM 43.8072 -113.3961 289° West 440 506 38,000  Level Salt Lake Center
10:42PM 43.8436 -113.5489 288° West 439 505 38,000  Level Salt Lake Center
10:43PM 43.8881 -113.7269 289° West 434 499 38,000  Level Salt Lake Center
10:44PM 43.9233 -113.8764 288° West 426 490 38,000  Level Salt Lake Center
10:45PM 43.9639 -114.0419 289° West 428 493 38,000  Level Salt Lake Center
10:46PM 44.0017 -114.1914 289° West 428 493 38,000  Level Salt Lake Center
10:47PM 44.0428 -114.3678 288° West 430 495 38,000  Level Salt Lake Center
10:48PM 44.0789 -114.5183 289° West 430 495 38,000  Level Salt Lake Center
10:49PM 44.1158 -114.6692 289° West 431 496 38,000  Level Salt Lake Center
10:50PM 44.1567 -114.8461 288° West 430 495 38,000  Level Salt Lake Center
10:51PM 44.1911 -114.9953 288° West 425 489 38,000  Level Salt Lake Center
10:52PM 44.2306 -115.1697 288° West 423 487 38,000  Level Salt Lake Center
10:53PM 44.2661 -115.3192 288° West 423 487 38,000  Level Salt Lake Center
10:54PM 44.2997 -115.4700 287° West 424 488 38,000  Level Salt Lake Center
10:55PM 44.3386 -115.6453 287° West 423 487 38,000  Level Salt Lake Center
10:56PM 44.3717 -115.7939 287° West 421 484 38,000  Level Salt Lake Center
10:57PM 44.4106 -115.9681 287° West 420 483 38,000  Level Salt Lake Center
10:58PM 44.4408 -116.1089 287° West 418 481 38,000  Level Salt Lake Center
10:59PM 44.4772 -116.2775 287° West 417 480 38,000  Level Salt Lake Center
11:00PM 44.5094 -116.4272 287° West 419 482 38,000  Level Salt Lake Center
11:01PM 44.5469 -116.6017 287° West 419 482 38,000  Level Salt Lake Center
11:02PM 44.5794 -116.7519 287° West 419 482 38,000  Level Salt Lake Center
11:03PM 44.6111 -116.9019 287° West 420 483 38,000  Level Salt Lake Center
11:04PM 44.6481 -117.0764 287° West 417 480 38,000  Level Salt Lake Center
11:05PM 44.6797 -117.2258 287° West 417 480 38,000  Level Salt Lake Center
11:06PM 44.7167 -117.4017 287° West 420 483 38,000  Level Salt Lake Center
11:07PM 44.7481 -117.5517 286° West 418 481 38,000  Level Salt Lake Center
11:08PM 44.7789 -117.7017 286° West 418 481 38,000  Level Salt Lake Center
11:09PM 44.8136 -117.8783 286° West 419 482 38,000  Level Salt Lake Center
11:10PM 44.8428 -118.0286 285° West 416 479 38,000  Level Salt Lake Center
11:12PM 44.8719 -118.1714 286° West 420 483 38,000  Level Salt Lake Center
11:13PM 44.9089 -118.3589 286° West 417 480 38,000  Level Salt Lake Center
11:14PM 44.9403 -118.5164 286° West 419 482 38,000  Level Salt Lake Center
11:15PM 44.9697 -118.6733 285° West 417 480 38,000  Level Seattle Center
11:16PM 45.0008 -118.8306 286° West 417 480 38,000  Level Seattle Center
11:17PM 45.0314 -118.9872 285° West 416 479 38,000  Level Seattle Center
11:18PM 45.0608 -119.1433 285° West 414 476 38,000  Level Seattle Center
11:19PM 45.0897 -119.3022 284° West 419 482 38,000  Level Seattle Center
11:20PM 45.1194 -119.4600 285° West 419 482 38,000  Level Seattle Center
11:21PM 45.1483 -119.6161 285° West 415 478 38,000  Level Seattle Center
11:22PM 45.1822 -119.8008 285° West 410 472 38,000  Level Seattle Center
11:23PM 45.2092 -119.9544 284° West 409 471 38,000 -60 Level Seattle Center
11:24PM 45.2369 -120.1083 284° West 410 472 37,900 -1,200 Descending Seattle Center
11:25PM 45.2636 -120.2617 284° West 406 467 35,600 -2,760 Descending Seattle Center
11:26PM 45.2928 -120.4200 285° West 416 479 32,400 -2,820 Descending Seattle Center
11:27PM 45.3194 -120.5783 284° West 416 479 30,000 -2,400 Descending Seattle Center
11:28PM 45.3453 -120.7306 284° West 405 466 27,600 -2,520 Descending Seattle Center
11:29PM 45.3700 -120.8789 283° West 393 452 24,900 -2,280 Descending Seattle Center
11:30PM 45.3975 -121.0308 285° West 396 456 23,000 -2,280 Descending Seattle Center
11:31PM 45.4217 -121.1814 283° West 393 452 20,400 -2,640 Descending Seattle Center
11:32PM 45.4428 -121.3267 282° West 386 444 18,300 -2,340 Descending Seattle Center
11:32PM 45.4567 -121.4228 282° West 361 415 16,900 -2,100 Descending Seattle Center
11:33PM 45.4617 -121.4972 275° West 368 423 15,800 -1,920 Descending Seattle Center
11:34PM 45.4789 -121.6292 281° West 345 397 14,000 -1,860 Descending Seattle Center
11:34PM 45.4847 -121.6675 282° West 294 338 13,400 -1,800 Descending Seattle Center
11:35PM 45.4936 -121.7386 280° West 295 339 12,200 -1,800 Descending Seattle Center
11:35PM 45.4961 -121.7739 276° West 267 307 11,600 -1,620 Descending Seattle Center
11:36PM 45.5061 -121.8461 281° West 278 320 10,600 -1,500 Descending Seattle Center
11:37PM 45.5083 -121.9489 272° West 271 312 9,000 -1,620 Descending Seattle Center
11:38PM 45.5089 -122.0514 270° West 263 303 7,400 -1,500 Descending Seattle Center
11:39PM 45.5119 -122.1556 272° West 264 304 6,000 -1,320 Descending Seattle Center
11:40PM 45.5111 -122.2567 269° West 261 300 4,800 -1,380 Descending Seattle Center
11:41PM 45.5128 -122.3561 271° West 255 293 3,300 -1,260 Descending Seattle Center
11:42PM 45.5292 -122.4264 288° West 204 235 2,300 -1,020 Descending Seattle Center